Time;durP1;ratioP1;P1;durP2;ratioP2;P2;SDS_P1;SDS_P2;PMS_P1;PMS_P2;Temp;Humidity;BMP_temperature;BMP_pressure;BME280_temperature;BME280_humidity;BME280_pressure;Samples;Min_cycle;Max_cycle;Signal;HPM_P1;HPM_P2
2023/03/25 04:59:55;;;;;;;4.90;1.00;;;;;;;5.80;82.54;94918.03;5927274;24;20575;-83
2023/03/25 05:06:55;;;;;;;;;;;;;;;;;;;;;
2023/03/25 05:13:55;;;;;;;;;;;;;;;;;;;;;
2023/03/25 06:21:32;;;;;;;5.77;1.03;;;;;;;6.02;86.16;94960.84;5857325;24;20244;-83
2023/03/25 06:24:52;;;;;;;;;;;;;;;;;;;;;
2023/03/25 06:45:14;;;;;;;3.77;0.93;;;;;;;6.71;82.43;94968.41;5703662;25;20200;-80
2023/03/25 06:54:15;;;;;;;8.57;1.30;;;;;;;7.02;79.65;94974.22;5712559;25;20180;-79
2023/03/25 08:32:28;;;;;;;2.90;0.77;;;;;;;7.11;82.73;95019.03;6148043;23;20241;-78
2023/03/25 08:38:32;;;;;;;2.00;0.80;;;;;;;7.27;84.09;95008.13;6031468;23;20219;-80
2023/03/25 08:55:25;;;;;;;2.17;0.97;;;;;;;7.55;83.86;95006.38;6144998;23;20265;-78
2023/03/25 08:57:51;;;;;;;0.57;0.50;;;;;;;7.14;85.01;94992.09;6126345;23;20191;-80
2023/03/25 09:00:17;;;;;;;1.20;0.50;;;;;;;7.62;84.32;94991.94;6152159;23;20182;-82
2023/03/25 09:02:43;;;;;;;0.33;0.33;;;;;;;7.34;84.01;94994.50;6151802;23;20186;-82
2023/03/25 09:05:09;;;;;;;1.33;0.60;;;;;;;7.26;84.54;94978.09;6126343;23;20238;-81
2023/03/25 09:07:35;;;;;;;0.30;0.30;;;;;;;7.44;85.17;94994.47;6127608;23;20269;-81
2023/03/25 09:10:01;;;;;;;0.30;0.30;;;;;;;7.70;85.44;94996.41;6127002;23;20167;-82
2023/03/25 09:12:27;;;;;;;0.80;0.60;;;;;;;7.94;86.15;94989.72;6153997;23;20474;-82
2023/03/25 09:14:52;;;;;;;1.80;1.27;;;;;;;8.00;83.01;94992.69;6130681;23;20178;-81
2023/03/25 09:17:20;;;;;;;8.73;3.80;;;;;;;7.92;83.20;95004.56;6129324;23;20195;-84
2023/03/25 09:19:51;;;;;;;1.27;1.17;;;;;;;8.57;84.09;94993.28;6131631;23;20489;-84
2023/03/25 09:22:18;;;;;;;0.60;0.60;;;;;;;8.46;83.47;94983.97;6100980;23;20653;-84
2023/03/25 09:24:43;;;;;;;0.60;0.40;;;;;;;8.47;81.29;94990.75;6125597;23;20251;-85
2023/03/25 09:27:11;;;;;;;1.20;0.60;;;;;;;8.82;82.54;94992.50;6100249;23;20239;-83
2023/03/25 09:29:57;;;;;;;0.73;0.60;;;;;;;9.16;82.58;94992.59;6123044;23;20164;-84
2023/03/25 09:36:56;;;;;;;0.40;0.40;;;;;;;8.65;80.55;94986.41;6035510;23;20635;-83
2023/03/25 09:45:10;;;;;;;1.70;1.10;;;;;;;8.93;79.42;94988.91;6152989;23;20241;-83
2023/03/25 09:52:01;;;;;;;0.53;0.53;;;;;;;9.03;76.41;94974.06;6032452;23;20180;-84
2023/03/25 09:55:02;;;;;;;2.90;1.60;;;;;;;9.76;74.54;94982.22;6026298;23;20225;-83
2023/03/25 09:58:04;;;;;;;0.70;0.63;;;;;;;10.12;72.67;94977.63;5985661;23;20190;-83
2023/03/25 10:01:01;;;;;;;9.00;6.63;;;;;;;10.87;71.63;94988.00;6013850;23;20201;-84
2023/03/25 10:04:12;;;;;;;3.33;2.67;;;;;;;10.70;70.03;94988.97;6035791;23;20158;-84
2023/03/25 10:06:57;;;;;;;1.00;0.53;;;;;;;10.37;69.31;94980.31;6036021;23;20158;-83
2023/03/25 10:10:16;;;;;;;0.70;0.60;;;;;;;10.41;68.83;94981.59;6035766;23;20516;-82
2023/03/25 10:35:53;;;;;;;;;;;;;;;;;;;;;
2023/03/25 10:39:05;;;;;;;;;;;;;;;;;;;;;
2023/03/25 10:46:07;;;;;;;;;;;;;;;;;;;;;
2023/03/25 10:49:25;;;;;;;2.77;2.40;;;;;;;9.89;69.26;94986.97;6010457;23;20276;-82
2023/03/25 10:52:46;;;;;;;3.00;1.23;;;;;;;10.04;69.82;94982.00;6007054;23;20174;-83
2023/03/25 10:58:51;;;;;;;1.60;1.00;;;;;;;10.50;67.55;94996.22;5943689;24;20188;-82
2023/03/25 11:01:19;;;;;;;3.27;1.37;;;;;;;10.46;67.81;94995.75;5952565;24;20219;-82
2023/03/25 11:03:49;;;;;;;1.17;0.70;;;;;;;9.79;72.80;94992.28;5931342;24;20487;-82
2023/03/25 11:06:29;;;;;;;1.13;0.97;;;;;;;9.17;71.47;94986.44;5954256;24;20193;-82
2023/03/25 11:09:19;;;;;;;1.30;0.80;;;;;;;9.21;71.36;94990.38;5930882;24;20200;-81
2023/03/25 11:11:45;;;;;;;3.60;0.73;;;;;;;9.35;70.07;94988.97;5953808;24;20212;-81
2023/03/25 11:14:11;;;;;;;3.57;1.07;;;;;;;9.60;69.59;94977.78;5966165;24;20622;-82
2023/03/25 11:16:53;;;;;;;3.73;1.13;;;;;;;10.04;68.38;94990.59;6009110;23;20166;-81
2023/03/25 11:19:23;;;;;;;1.93;1.03;;;;;;;10.02;67.65;94986.53;6040623;23;20183;-82
2023/03/25 11:21:53;;;;;;;2.40;1.00;;;;;;;10.43;68.36;94983.09;6078863;23;20635;-81
2023/03/25 11:24:19;;;;;;;3.77;1.20;;;;;;;10.43;67.73;94998.66;6077394;23;20148;-82
2023/03/25 11:26:47;;;;;;;2.47;0.83;;;;;;;10.35;68.27;95010.81;6076990;23;20578;-82
2023/03/25 11:29:18;;;;;;;4.50;1.20;;;;;;;10.59;69.84;94990.06;6076766;23;20180;-82
2023/03/25 11:31:58;;;;;;;2.37;1.30;;;;;;;10.60;71.61;94989.13;6101333;23;20243;-82
2023/03/25 11:34:23;;;;;;;3.23;1.10;;;;;;;10.48;70.99;94998.97;6075506;23;20160;-81
2023/03/25 11:37:01;;;;;;;3.57;1.20;;;;;;;9.78;70.52;94995.84;6098124;23;20230;-81
2023/03/25 11:39:35;;;;;;;2.93;1.03;;;;;;;9.34;71.29;95008.91;6099542;23;20205;-82
2023/03/25 11:42:16;;;;;;;1.60;0.90;;;;;;;9.71;75.56;95007.78;6099190;23;20175;-82
2023/03/25 11:44:49;;;;;;;1.63;0.70;;;;;;;9.38;76.67;94998.25;6098593;23;20156;-82
2023/03/25 11:47:24;;;;;;;2.77;0.90;;;;;;;9.06;76.40;95000.47;6076191;23;20157;-81
2023/03/25 11:49:51;;;;;;;1.60;0.70;;;;;;;9.23;76.89;94998.81;6101916;23;20167;-82
2023/03/25 11:52:20;;;;;;;0.87;0.73;;;;;;;9.19;76.94;94974.19;6075767;23;20166;-81
2023/03/25 11:54:46;;;;;;;1.60;0.87;;;;;;;9.19;77.18;94984.53;6098800;23;20179;-81
2023/03/25 11:57:15;;;;;;;1.97;1.37;;;;;;;8.90;77.46;94971.06;6099138;23;20187;-81
2023/03/25 11:59:46;;;;;;;2.90;0.87;;;;;;;8.99;78.03;94980.50;6099168;23;20618;-82
2023/03/25 12:02:23;;;;;;;1.40;0.90;;;;;;;9.39;77.10;94976.56;6099060;23;20167;-82
2023/03/25 12:05:04;;;;;;;2.10;0.80;;;;;;;9.67;75.31;94988.34;6122714;23;20156;-82
2023/03/25 12:07:41;;;;;;;6.10;0.80;;;;;;;9.33;75.71;95011.66;6099323;23;20695;-79
2023/03/25 12:10:09;;;;;;;6.07;3.10;;;;;;;9.37;75.66;95007.81;6122817;23;20144;-80
2023/03/25 12:12:43;;;;;;;13.83;7.53;;;;;;;9.37;78.08;94997.44;6074464;23;20223;-80
2023/03/25 12:15:31;;;;;;;4.53;2.23;;;;;;;9.12;79.38;95024.16;6097774;23;20725;-81
2023/03/25 12:18:29;;;;;;;13.37;9.33;;;;;;;8.97;78.40;95021.28;6074151;23;20303;-81
2023/03/25 12:21:07;;;;;;;1.93;1.20;;;;;;;8.61;80.18;95046.38;6074335;23;20695;-80
2023/03/25 12:24:09;;;;;;;1.00;0.90;;;;;;;8.15;83.49;95025.69;6098921;23;20207;-81
2023/03/25 12:26:46;;;;;;;1.23;0.80;;;;;;;8.06;83.11;95026.56;6099030;23;20175;-80
2023/03/25 12:29:21;;;;;;;1.83;1.00;;;;;;;8.04;81.44;95009.53;6098615;23;20222;-80
2023/03/25 12:31:56;;;;;;;0.93;0.70;;;;;;;8.47;81.73;95011.47;6078523;23;20147;-80
2023/03/25 12:34:24;;;;;;;3.20;2.40;;;;;;;8.65;82.72;94994.16;6135993;23;20162;-80
2023/03/25 12:36:55;;;;;;;3.30;1.00;;;;;;;8.95;82.46;94997.31;6113849;23;20262;-80
2023/03/25 12:39:52;;;;;;;0.97;0.70;;;;;;;9.15;81.95;94988.38;6111428;23;20195;-82
2023/03/25 12:42:47;;;;;;;2.33;0.90;;;;;;;8.73;79.95;94986.47;6105660;23;20152;-86
2023/03/25 12:45:22;;;;;;;1.87;1.13;;;;;;;9.28;80.22;94985.41;6103976;23;20159;-86
2023/03/25 12:47:56;;;;;;;1.13;1.00;;;;;;;9.43;80.07;94991.63;6103364;23;20199;-85
2023/03/25 12:50:51;;;;;;;1.63;0.80;;;;;;;9.32;79.52;94990.09;6131107;23;20167;-85
2023/03/25 12:53:41;;;;;;;4.00;1.10;;;;;;;9.56;78.38;94975.66;6132365;23;20522;-85
2023/03/25 12:56:15;;;;;;;3.83;1.10;;;;;;;9.77;77.38;94957.91;6133810;23;20222;-84
2023/03/25 12:58:54;;;;;;;4.33;1.27;;;;;;;9.81;74.60;94969.63;6105094;23;20194;-84
2023/03/25 13:01:28;;;;;;;3.00;1.03;;;;;;;10.00;75.61;94967.72;6130583;23;20162;-84
2023/03/25 13:04:12;;;;;;;1.90;0.90;;;;;;;10.00;74.67;94973.72;6105316;23;20550;-84
2023/03/25 13:06:58;;;;;;;3.37;1.00;;;;;;;10.13;74.82;94968.06;6128502;23;20143;-83
2023/03/25 13:09:30;;;;;;;3.17;0.90;;;;;;;10.09;73.32;94971.97;6106103;23;20589;-83
2023/03/25 13:12:03;;;;;;;3.00;0.80;;;;;;;9.96;72.81;94984.56;6106167;23;20151;-84
2023/03/25 13:14:32;;;;;;;4.33;1.00;;;;;;;10.13;72.98;94989.63;6158296;23;20144;-86
2023/03/25 13:17:00;;;;;;;2.47;0.90;;;;;;;10.30;73.06;94994.91;6107181;23;20641;-83
2023/03/25 13:19:26;;;;;;;4.07;1.20;;;;;;;10.45;72.66;94999.31;6107094;23;20159;-83
2023/03/25 13:21:56;;;;;;;2.00;0.90;;;;;;;10.21;73.51;95004.41;6107056;23;20163;-86
2023/03/25 13:24:38;;;;;;;2.47;0.87;;;;;;;10.12;71.56;94985.41;6129997;23;20167;-83
2023/03/25 13:27:04;;;;;;;3.73;0.80;;;;;;;10.36;69.66;94989.88;6129463;23;20167;-82
2023/03/25 13:29:48;;;;;;;2.30;1.10;;;;;;;10.75;69.86;94969.31;6104991;23;20245;-83
2023/03/25 13:32:49;;;;;;;2.10;1.20;;;;;;;10.94;69.55;94947.38;6104564;23;20230;-84
2023/03/25 13:35:18;;;;;;;2.37;1.10;;;;;;;11.07;66.37;94962.47;6107521;23;20155;-85
2023/03/25 13:37:49;;;;;;;4.13;1.50;;;;;;;10.84;66.38;94959.72;6130533;23;20245;-86
2023/03/25 13:40:25;;;;;;;5.27;1.00;;;;;;;10.35;67.15;94987.47;6131038;23;20246;-84
2023/03/25 13:43:01;;;;;;;4.13;1.80;;;;;;;10.17;69.89;95000.53;6105444;23;20175;-84
2023/03/25 13:45:30;;;;;;;3.77;1.30;;;;;;;9.35;73.48;95020.88;6107596;23;20170;-84
2023/03/25 13:48:02;;;;;;;4.37;1.37;;;;;;;9.26;74.98;95047.72;6131610;23;20179;-82
2023/03/25 13:50:29;;;;;;;2.93;1.17;;;;;;;8.61;79.40;95054.16;6157432;23;20167;-80
2023/03/25 13:53:30;;;;;;;2.63;1.23;;;;;;;8.83;80.34;95050.28;6133690;23;20158;-84
2023/03/25 14:28:39;;;;;;;7.57;1.70;;;;;;;9.97;76.21;94997.38;6147558;23;20211;-86
2023/03/25 14:43:45;;;;;;;3.37;0.80;;;;;;;10.23;71.78;94994.72;5986381;23;20606;-81
2023/03/25 14:46:10;;;;;;;3.60;1.77;;;;;;;10.10;70.05;94989.97;6007872;23;20504;-80
2023/03/25 14:48:36;;;;;;;3.23;1.00;;;;;;;10.36;71.29;94989.88;6008431;23;20246;-79
2023/03/25 14:51:09;;;;;;;2.73;1.00;;;;;;;10.22;70.40;94985.31;5985371;23;20162;-79
2023/03/25 14:53:36;;;;;;;5.77;0.90;;;;;;;10.28;68.27;94992.47;5985432;23;20254;-80
2023/03/25 14:56:05;;;;;;;3.40;1.30;;;;;;;10.43;69.57;94988.28;5961946;23;20166;-81
2023/03/25 14:58:31;;;;;;;4.67;1.33;;;;;;;10.10;69.35;94991.75;5963058;23;20221;-85
2023/03/25 15:01:11;;;;;;;3.13;1.20;;;;;;;10.31;68.74;94994.72;5964743;23;20191;-85
2023/03/25 15:03:46;;;;;;;7.80;2.40;;;;;;;10.46;68.91;94981.94;5964292;23;20162;-83
2023/03/25 15:06:17;;;;;;;3.43;1.23;;;;;;;10.23;68.58;95001.69;5990405;23;20157;-81
2023/03/25 15:08:52;;;;;;;7.73;1.40;;;;;;;9.99;68.54;94992.84;6013071;23;20177;-81
2023/03/25 15:11:26;;;;;;;7.07;2.10;;;;;;;9.82;69.84;94993.75;6069204;23;20166;-81
2023/03/25 15:13:55;;;;;;;5.20;1.43;;;;;;;9.65;69.29;94985.91;6131926;23;20135;-79
2023/03/25 15:16:39;;;;;;;5.77;1.53;;;;;;;9.39;70.28;94986.91;6106717;23;20190;-80
2023/03/25 15:19:10;;;;;;;3.80;1.30;;;;;;;9.63;69.10;94984.44;6157700;23;20187;-81
2023/03/25 15:21:57;;;;;;;7.00;1.30;;;;;;;9.66;68.67;94981.53;6156682;23;20669;-80
2023/03/25 15:24:28;;;;;;;4.03;0.87;;;;;;;9.71;69.07;94981.88;6157125;23;20155;-80
2023/03/25 15:26:55;;;;;;;2.00;0.93;;;;;;;9.81;68.16;94972.22;6106712;23;20366;-79
2023/03/25 15:29:27;;;;;;;2.50;1.30;;;;;;;10.03;68.38;94982.97;6107798;23;20197;-84
2023/03/25 15:32:10;;;;;;;3.10;0.90;;;;;;;9.89;68.68;94981.78;6130117;23;20164;-85
2023/03/25 15:34:45;;;;;;;2.80;0.90;;;;;;;10.01;66.27;94985.72;6154855;23;20164;-84
2023/03/25 15:37:44;;;;;;;2.17;1.03;;;;;;;9.62;68.01;94985.41;6127807;23;20187;-84
2023/03/25 15:40:14;;;;;;;4.53;1.30;;;;;;;9.29;69.32;94994.81;6155599;23;20162;-86
2023/03/25 15:43:17;;;;;;;2.87;1.10;;;;;;;9.44;68.95;94997.63;6109237;23;20151;-84
2023/03/25 15:46:14;;;;;;;3.43;1.10;;;;;;;9.25;68.59;94988.28;6132202;23;20155;-84
2023/03/25 15:49:07;;;;;;;4.37;1.33;;;;;;;9.31;70.38;94992.84;6159268;23;20171;-86
2023/03/25 15:51:55;;;;;;;3.07;1.10;;;;;;;9.95;71.13;94991.53;6158750;23;20141;-83
2023/03/25 15:54:31;;;;;;;5.53;1.33;;;;;;;9.97;70.15;94989.59;6132595;23;20202;-86
2023/03/25 15:57:01;;;;;;;4.00;1.17;;;;;;;9.97;69.03;94986.97;6109164;23;20198;-88
2023/03/25 15:59:44;;;;;;;4.87;1.30;;;;;;;9.83;68.87;94991.00;6132903;23;20179;-85
2023/03/25 16:02:37;;;;;;;3.37;1.10;;;;;;;9.78;68.25;94987.25;6133821;23;20261;-86
2023/03/25 16:05:04;;;;;;;2.03;0.80;;;;;;;9.74;68.24;94978.97;6127774;23;20166;-85
2023/03/25 16:07:30;;;;;;;4.03;1.40;;;;;;;9.79;67.02;94984.50;6133524;23;20179;-86
2023/03/25 16:09:55;;;;;;;6.00;1.30;;;;;;;9.91;67.41;94995.41;6109312;23;20163;-85
2023/03/25 16:12:24;;;;;;;4.37;1.10;;;;;;;9.86;66.36;94993.28;6110909;23;20309;-86
2023/03/25 16:14:51;;;;;;;2.97;1.20;;;;;;;9.68;65.64;94995.16;6110036;23;20159;-87
2023/03/25 16:17:18;;;;;;;3.43;0.80;;;;;;;9.72;65.92;95001.66;6133051;23;20200;-86
2023/03/25 16:19:54;;;;;;;3.53;1.33;;;;;;;9.94;65.46;94990.72;6134137;23;20159;-86
2023/03/25 16:22:33;;;;;;;5.73;1.50;;;;;;;9.81;66.28;94985.16;6109356;23;20159;-86
2023/03/25 16:25:26;;;;;;;3.03;1.83;;;;;;;9.85;65.41;94999.44;6133452;23;20538;-85
2023/03/25 16:27:55;;;;;;;3.50;2.03;;;;;;;9.88;65.49;95000.91;6098907;23;20251;-84
2023/03/25 16:30:35;;;;;;;4.77;1.60;;;;;;;9.88;64.38;94999.13;6103708;23;20156;-85
2023/03/25 16:33:06;;;;;;;3.93;1.73;;;;;;;9.97;64.89;94994.75;6103877;23;20186;-85
2023/03/25 16:35:34;;;;;;;4.67;1.20;;;;;;;9.80;64.34;94988.72;6153904;23;20215;-83
2023/03/25 16:38:00;;;;;;;3.63;1.30;;;;;;;9.70;63.93;94987.22;6131990;23;20239;-86
2023/03/25 16:40:37;;;;;;;2.90;1.67;;;;;;;9.91;63.51;94980.66;6108808;23;20168;-86
2023/03/25 16:43:04;;;;;;;4.53;1.57;;;;;;;9.69;64.28;94991.59;6105693;23;20152;-84
2023/03/25 16:45:31;;;;;;;5.40;1.67;;;;;;;9.51;64.42;94999.44;6127883;23;20156;-84
2023/03/25 16:47:56;;;;;;;3.83;1.77;;;;;;;9.46;64.49;94995.72;6128996;23;20199;-85
2023/03/25 16:50:23;;;;;;;4.07;1.20;;;;;;;9.48;63.75;94993.75;6128977;23;20587;-87
2023/03/25 16:52:49;;;;;;;4.33;1.57;;;;;;;9.63;63.88;94989.63;6128896;23;20544;-83
2023/03/25 16:55:32;;;;;;;7.03;1.53;;;;;;;9.23;64.28;94992.81;6103474;23;20191;-84
2023/03/25 16:58:01;;;;;;;5.03;1.40;;;;;;;9.30;64.76;94992.06;6104095;23;20202;-85
2023/03/25 17:00:38;;;;;;;2.47;1.07;;;;;;;9.34;65.15;94990.75;6129331;23;20481;-85
2023/03/25 17:03:04;;;;;;;2.77;0.90;;;;;;;9.19;65.31;94989.72;6128893;23;20439;-86
2023/03/25 17:05:30;;;;;;;1.60;1.20;;;;;;;9.38;65.38;94990.47;6128755;23;20160;-85
2023/03/25 17:08:03;;;;;;;2.60;1.30;;;;;;;9.16;66.04;94982.25;6102725;23;20559;-84
2023/03/25 17:10:52;;;;;;;3.57;1.20;;;;;;;9.23;65.78;94987.63;6104742;23;20398;-84
2023/03/25 17:13:36;;;;;;;4.17;1.53;;;;;;;9.23;65.41;94983.25;6103008;23;20164;-86
2023/03/25 17:16:05;;;;;;;4.20;1.50;;;;;;;8.99;66.18;94988.28;6148669;23;20144;-85
2023/03/25 17:18:31;;;;;;;3.03;1.00;;;;;;;8.96;66.47;94993.75;6153148;23;20192;-86
2023/03/25 17:20:59;;;;;;;3.93;0.90;;;;;;;8.87;65.97;94981.72;6128612;23;20191;-86
2023/03/25 17:23:34;;;;;;;3.37;1.03;;;;;;;8.90;66.02;94991.78;6127483;23;20156;-87
2023/03/25 17:26:07;;;;;;;4.53;1.30;;;;;;;8.92;66.06;94992.44;6125617;23;20216;-86
2023/03/25 17:28:36;;;;;;;5.90;1.30;;;;;;;8.91;66.38;94985.63;6127670;23;20183;-87
2023/03/25 17:31:17;;;;;;;5.53;1.33;;;;;;;8.84;66.37;94985.44;6128263;23;20241;-87
2023/03/25 17:33:51;;;;;;;4.97;1.37;;;;;;;8.89;65.74;94982.38;6126780;23;20175;-86
2023/03/25 17:36:18;;;;;;;4.23;1.27;;;;;;;8.83;66.19;94972.63;6104918;23;20599;-83
2023/03/25 17:38:44;;;;;;;4.90;1.10;;;;;;;8.77;66.35;94974.84;6102459;23;20195;-82
2023/03/25 17:41:11;;;;;;;4.77;1.50;;;;;;;8.62;66.31;94978.13;6127380;23;20192;-84
2023/03/25 17:43:41;;;;;;;3.53;1.83;;;;;;;8.72;66.48;94976.25;6103793;23;20167;-84
2023/03/25 17:46:07;;;;;;;5.37;1.40;;;;;;;8.64;67.26;94989.94;6102202;23;20152;-84
2023/03/25 17:48:32;;;;;;;4.37;1.70;;;;;;;8.56;66.94;94987.28;6101580;23;20619;-85
2023/03/25 17:50:59;;;;;;;3.50;2.00;;;;;;;8.58;67.52;94984.56;6102203;23;20156;-84
2023/03/25 17:53:25;;;;;;;4.03;1.80;;;;;;;8.43;67.22;94998.03;6101154;23;20167;-84
2023/03/25 17:55:51;;;;;;;3.70;1.67;;;;;;;8.41;67.04;95014.66;6099898;23;20156;-86
2023/03/25 17:58:17;;;;;;;3.30;1.40;;;;;;;8.48;67.33;95018.25;6100104;23;20249;-87
2023/03/25 18:00:42;;;;;;;7.43;2.20;;;;;;;8.48;67.44;95029.47;6100085;23;20215;-84
2023/03/25 18:03:15;;;;;;;4.53;1.93;;;;;;;8.35;67.78;95033.34;6098427;23;20163;-83
2023/03/25 18:05:40;;;;;;;3.03;1.30;;;;;;;8.47;68.04;95027.00;6124015;23;20141;-84
2023/03/25 18:08:11;;;;;;;2.50;1.33;;;;;;;8.37;68.03;95040.00;6099853;23;20195;-84
2023/03/25 18:10:37;;;;;;;5.07;1.33;;;;;;;8.27;68.15;95043.59;6099677;23;20168;-84
2023/03/25 18:13:04;;;;;;;5.90;1.70;;;;;;;8.23;68.12;95049.06;6100638;23;20488;-85
2023/03/25 18:15:29;;;;;;;5.93;1.17;;;;;;;8.21;68.37;95050.13;6099459;23;20183;-83
2023/03/25 18:17:55;;;;;;;2.20;1.20;;;;;;;8.23;68.32;95054.22;6099990;23;20188;-84
2023/03/25 18:20:26;;;;;;;6.77;2.07;;;;;;;8.26;68.25;95042.78;6124175;23;20163;-84
2023/03/25 18:22:51;;;;;;;3.90;1.20;;;;;;;8.23;68.00;95049.06;6101754;23;20160;-85
2023/03/25 18:25:16;;;;;;;2.87;1.13;;;;;;;8.30;67.61;95048.44;6125746;23;20178;-84
2023/03/25 18:27:42;;;;;;;6.60;1.30;;;;;;;8.27;67.56;95049.56;6101065;23;20270;-84
2023/03/25 18:30:20;;;;;;;4.07;0.90;;;;;;;8.22;67.25;95051.78;6101254;23;20163;-84
2023/03/25 18:32:46;;;;;;;3.20;1.70;;;;;;;8.30;67.01;95057.03;6078077;23;20175;-86
2023/03/25 18:35:11;;;;;;;4.50;1.70;;;;;;;8.27;66.54;95061.69;6100857;23;20493;-84
2023/03/25 18:37:36;;;;;;;4.73;1.70;;;;;;;8.27;66.42;95062.50;6076554;23;20190;-83
2023/03/25 18:40:15;;;;;;;3.27;1.50;;;;;;;8.30;66.53;95061.38;6077225;23;20164;-84
2023/03/25 18:42:41;;;;;;;5.70;1.63;;;;;;;8.32;66.57;95062.09;6078147;23;20627;-85
2023/03/25 18:45:07;;;;;;;2.50;1.10;;;;;;;8.19;66.87;95076.16;6100838;23;20164;-83
2023/03/25 18:47:32;;;;;;;6.73;1.33;;;;;;;8.18;66.73;95074.53;6100652;23;20176;-84
2023/03/25 18:49:57;;;;;;;2.00;1.07;;;;;;;8.24;66.72;95073.97;6126835;23;20156;-83
2023/03/25 18:53:23;;;;;;;4.53;1.60;;;;;;;8.28;67.07;95074.47;6124823;23;20617;-84
2023/03/25 18:55:50;;;;;;;3.43;1.30;;;;;;;8.24;67.04;95067.97;5980928;23;20174;-83
2023/03/25 18:58:21;;;;;;;3.50;1.37;;;;;;;8.31;67.21;95070.81;5935368;24;20661;-87
2023/03/25 19:00:49;;;;;;;5.10;1.10;;;;;;;8.22;67.48;95059.56;5958386;24;20492;-83
2023/03/25 19:03:15;;;;;;;4.27;1.37;;;;;;;8.26;68.22;95065.25;5978056;24;20168;-84
2023/03/25 19:05:47;;;;;;;1.53;1.00;;;;;;;8.19;68.76;95085.69;5957156;24;20665;-84
2023/03/25 19:08:16;;;;;;;4.60;1.40;;;;;;;8.09;70.28;95127.13;5933309;24;20184;-84
2023/03/25 19:10:42;;;;;;;2.10;1.40;;;;;;;8.10;74.38;95144.25;5958392;24;20166;-84
2023/03/25 19:13:07;;;;;;;3.80;1.50;;;;;;;8.04;76.03;95131.91;5934567;24;20163;-85
2023/03/25 19:15:32;;;;;;;6.13;1.47;;;;;;;7.55;78.23;95131.22;5958725;24;20189;-88
2023/03/25 19:18:00;;;;;;;8.50;1.97;;;;;;;7.65;78.59;95116.50;5960302;24;20191;-87
2023/03/25 19:20:28;;;;;;;5.47;1.50;;;;;;;7.41;79.36;95139.41;5958837;24;20224;-84
2023/03/25 19:22:53;;;;;;;7.83;1.40;;;;;;;7.24;79.77;95148.66;5959673;24;20171;-84
2023/03/25 19:25:19;;;;;;;3.53;1.60;;;;;;;7.39;80.78;95151.66;5982387;24;20227;-85
2023/03/25 19:27:45;;;;;;;5.30;1.17;;;;;;;7.29;80.67;95136.16;5968556;23;20194;-84
2023/03/25 19:30:14;;;;;;;4.70;1.00;;;;;;;7.21;81.52;95141.19;5987814;23;20247;-84
2023/03/25 19:32:41;;;;;;;5.83;1.53;;;;;;;7.37;81.62;95127.72;6067950;23;20156;-85
2023/03/25 19:35:11;;;;;;;3.50;1.20;;;;;;;7.21;80.88;95130.88;6102501;23;20168;-85
2023/03/25 19:37:37;;;;;;;3.97;1.10;;;;;;;7.37;81.05;95131.13;6077977;23;20196;-85
2023/03/25 19:40:07;;;;;;;6.33;1.43;;;;;;;7.30;81.28;95135.19;6102035;23;20223;-85
2023/03/25 19:42:37;;;;;;;3.20;1.10;;;;;;;7.23;81.63;95139.28;6077941;23;20176;-85
2023/03/25 19:45:08;;;;;;;2.57;1.30;;;;;;;7.22;81.68;95144.59;6101166;23;20152;-86
2023/03/25 19:47:40;;;;;;;2.60;1.03;;;;;;;7.08;82.71;95133.75;6101905;23;20179;-85
2023/03/25 19:50:07;;;;;;;3.93;1.30;;;;;;;7.07;82.77;95126.94;6079404;23;20156;-85
2023/03/25 19:52:32;;;;;;;3.23;1.90;;;;;;;7.17;82.27;95137.28;6078301;23;20178;-87
2023/03/25 19:54:57;;;;;;;3.00;1.60;;;;;;;7.25;81.95;95126.25;6100379;23;20534;-86
2023/03/25 19:57:28;;;;;;;3.30;1.00;;;;;;;7.08;82.61;95131.16;6100560;23;20192;-85
2023/03/25 19:59:54;;;;;;;2.10;1.20;;;;;;;7.20;81.93;95120.69;6101538;23;20144;-87
2023/03/25 20:02:19;;;;;;;2.33;0.83;;;;;;;7.15;82.16;95126.25;6101432;23;20483;-86
2023/03/25 20:04:44;;;;;;;4.87;0.90;;;;;;;7.06;82.29;95127.88;6097352;23;20613;-90
2023/03/25 20:07:10;;;;;;;2.77;1.17;;;;;;;7.16;82.16;95109.81;6124730;23;20492;-86
2023/03/25 20:09:35;;;;;;;5.47;1.13;;;;;;;7.20;81.84;95118.09;6075958;23;20579;-86
2023/03/25 20:12:00;;;;;;;6.13;1.10;;;;;;;7.05;81.94;95126.25;6099864;23;20159;-85
2023/03/25 20:14:26;;;;;;;5.17;1.30;;;;;;;7.13;81.67;95115.22;6075592;23;20164;-86
2023/03/25 20:16:51;;;;;;;3.57;1.30;;;;;;;7.24;81.18;95114.28;6098547;23;20164;-87
2023/03/25 20:19:16;;;;;;;3.60;0.90;;;;;;;7.24;80.97;95111.69;6099329;23;20828;-87
2023/03/25 20:21:42;;;;;;;3.10;1.27;;;;;;;7.28;80.87;95107.91;6096918;23;20209;-87
2023/03/25 20:24:07;;;;;;;4.37;1.33;;;;;;;7.19;81.13;95101.78;6123166;23;20595;-87
2023/03/25 20:26:33;;;;;;;2.47;1.13;;;;;;;7.24;81.22;95112.50;6097736;23;20210;-87
2023/03/25 20:28:58;;;;;;;4.53;1.30;;;;;;;7.33;81.04;95111.69;6099397;23;20297;-85
2023/03/25 20:31:28;;;;;;;5.87;1.40;;;;;;;7.18;82.19;95110.50;6128268;23;20530;-85
2023/03/25 20:33:54;;;;;;;7.67;2.80;;;;;;;7.17;82.55;95102.88;6104326;23;20155;-87
2023/03/25 20:36:20;;;;;;;4.93;1.30;;;;;;;7.18;83.33;95087.25;6104534;23;20186;-86
2023/03/25 20:38:45;;;;;;;6.17;1.40;;;;;;;7.22;83.00;95083.41;6104367;23;20242;-87
2023/03/25 20:41:11;;;;;;;3.20;1.40;;;;;;;7.25;83.14;95092.69;6128701;23;20262;-83
2023/03/25 20:43:37;;;;;;;2.77;1.30;;;;;;;7.19;82.96;95090.66;6128435;23;20205;-89
2023/03/25 20:46:02;;;;;;;4.10;1.53;;;;;;;7.19;82.86;95085.47;6104437;23;20155;-86
2023/03/25 20:48:27;;;;;;;5.23;1.60;;;;;;;7.26;82.38;95086.56;6103685;23;20541;-86
2023/03/25 20:51:02;;;;;;;4.47;1.30;;;;;;;7.12;82.70;95092.94;6127529;23;20205;-89
2023/03/25 20:53:28;;;;;;;3.50;1.50;;;;;;;7.26;82.38;95094.31;6128265;23;20162;-86
2023/03/25 20:55:55;;;;;;;6.03;1.57;;;;;;;7.19;83.38;95101.78;6130178;23;20163;-87
2023/03/25 20:58:21;;;;;;;8.47;2.13;;;;;;;7.14;83.59;95106.53;6106343;23;20206;-87
2023/03/25 21:00:47;;;;;;;6.43;2.60;;;;;;;7.17;83.47;95103.69;6104638;23;20175;-84
2023/03/25 21:03:14;;;;;;;5.37;1.70;;;;;;;7.07;84.11;95110.63;6103713;23;20159;-86
2023/03/25 21:05:40;;;;;;;5.03;2.40;;;;;;;7.15;83.95;95113.31;6104595;23;20160;-86
2023/03/25 21:08:06;;;;;;;5.43;1.60;;;;;;;7.20;83.92;95110.34;6155399;23;20190;-85
2023/03/25 21:10:31;;;;;;;2.73;1.50;;;;;;;7.16;84.64;95111.59;6104282;23;20161;-84
2023/03/25 21:12:56;;;;;;;4.27;1.77;;;;;;;7.02;86.74;95139.44;6103725;23;20162;-85
2023/03/25 21:15:21;;;;;;;7.00;1.43;;;;;;;6.93;87.78;95135.09;6102752;23;20167;-84
2023/03/25 21:17:47;;;;;;;4.93;1.43;;;;;;;6.98;87.85;95135.50;6103795;23;20187;-85
2023/03/25 21:20:12;;;;;;;3.73;1.40;;;;;;;6.98;88.54;95116.59;6128505;23;20167;-86
2023/03/25 21:22:41;;;;;;;3.40;1.40;;;;;;;7.06;87.28;95099.47;6103821;23;20761;-84
2023/03/25 21:25:08;;;;;;;4.70;1.40;;;;;;;6.82;86.65;95117.16;6129065;23;20155;-84
2023/03/25 21:27:33;;;;;;;5.90;1.47;;;;;;;6.90;86.49;95119.88;6104310;23;20230;-84
2023/03/25 21:29:59;;;;;;;3.60;1.20;;;;;;;6.79;86.56;95122.56;6103892;23;20163;-85
2023/03/25 21:32:24;;;;;;;6.33;1.50;;;;;;;6.83;87.16;95105.88;6103826;23;20163;-85
2023/03/25 21:34:49;;;;;;;1.73;1.00;;;;;;;6.90;87.46;95094.06;6127494;23;20170;-84
2023/03/25 21:37:15;;;;;;;2.57;1.23;;;;;;;6.84;87.62;95104.91;6103568;23;20238;-85
2023/03/25 21:39:40;;;;;;;3.90;1.43;;;;;;;6.89;87.25;95102.75;6153640;23;20194;-86
2023/03/25 21:42:06;;;;;;;4.10;1.30;;;;;;;6.92;86.97;95106.84;6106066;23;20199;-85
2023/03/25 21:44:32;;;;;;;4.07;1.40;;;;;;;6.86;87.02;95112.53;6105845;23;20166;-85
2023/03/25 21:47:00;;;;;;;5.37;1.27;;;;;;;6.90;86.82;95121.66;6104824;23;20201;-85
2023/03/25 21:49:27;;;;;;;6.73;1.70;;;;;;;6.88;87.32;95126.09;6104695;23;20167;-84
2023/03/25 21:51:55;;;;;;;5.20;1.40;;;;;;;6.86;87.96;95128.00;6104332;23;20187;-83
2023/03/25 21:54:22;;;;;;;6.10;1.47;;;;;;;6.80;88.76;95134.50;6104990;23;20155;-85
2023/03/25 21:56:53;;;;;;;4.50;1.47;;;;;;;6.76;90.10;95138.31;6155465;23;20155;-84
2023/03/25 21:59:20;;;;;;;5.37;1.70;;;;;;;6.73;91.30;95139.41;6107937;23;20625;-84
2023/03/25 22:01:45;;;;;;;5.50;1.40;;;;;;;6.76;91.64;95149.47;6106798;23;20242;-85
2023/03/25 22:04:11;;;;;;;5.10;1.47;;;;;;;6.44;95.02;95144.50;6107142;23;20163;-85
2023/03/25 22:06:36;;;;;;;4.30;1.50;;;;;;;6.49;94.40;95146.69;6106868;23;20170;-85
2023/03/25 22:09:05;;;;;;;3.73;1.63;;;;;;;6.71;93.99;95135.31;6108321;23;20263;-85
2023/03/25 22:11:32;;;;;;;2.20;1.53;;;;;;;6.71;93.69;95132.75;6108567;23;20155;-85
2023/03/25 22:13:57;;;;;;;3.40;1.83;;;;;;;6.55;94.64;95135.06;6133369;23;20478;-85
2023/03/25 22:16:23;;;;;;;5.00;1.40;;;;;;;6.65;94.29;95128.13;6132092;23;20259;-86